createdAt,value
2024-04-19T00:00:59.925Z,52.23
2024-04-19T00:01:59.843Z,52.30
2024-04-19T00:02:59.940Z,52.23
2024-04-19T00:04:00.037Z,52.59
2024-04-19T00:05:00.034Z,52.53
2024-04-19T00:06:00.053Z,52.56
2024-04-19T00:07:00.064Z,52.38
2024-04-19T00:08:00.083Z,52.68
2024-04-19T00:09:00.174Z,52.66
2024-04-19T00:10:00.320Z,52.64
2024-04-19T00:11:00.378Z,52.70
2024-04-19T00:12:00.417Z,53.14
2024-04-19T00:13:00.498Z,52.76
2024-04-19T00:14:00.560Z,52.46
2024-04-19T00:15:00.642Z,52.29
2024-04-19T00:16:00.736Z,52.25
2024-04-19T00:17:00.879Z,52.70
2024-04-19T00:18:00.959Z,52.71
2024-04-19T00:19:01.001Z,52.99
2024-04-19T00:20:01.127Z,52.95
2024-04-19T00:21:01.195Z,52.79
2024-04-19T00:22:01.299Z,52.87
2024-04-19T00:23:01.431Z,52.85
2024-04-19T00:24:01.536Z,53.05
2024-04-19T00:25:01.649Z,53.23
2024-04-19T00:26:01.731Z,52.91
2024-04-19T00:27:01.844Z,52.88
2024-04-19T00:28:01.931Z,53.17
2024-04-19T00:29:02.007Z,53.72
2024-04-19T00:30:02.096Z,53.54
2024-04-19T00:31:02.180Z,53.70
2024-04-19T00:32:02.328Z,53.85
2024-04-19T00:33:08.411Z,53.86
2024-04-19T00:34:03.547Z,53.54
2024-04-19T00:35:02.374Z,53.25
2024-04-19T00:36:02.422Z,53.10
2024-04-19T00:37:02.447Z,53.19
2024-04-19T00:38:02.462Z,53.09
2024-04-19T00:39:02.544Z,53.10
2024-04-19T00:40:02.507Z,53.02
2024-04-19T00:41:02.561Z,52.94
2024-04-19T00:42:02.588Z,52.73
2024-04-19T00:43:02.640Z,52.90
2024-04-19T00:44:02.640Z,52.99
2024-04-19T00:45:02.663Z,52.84
2024-04-19T00:46:02.695Z,52.74
2024-04-19T00:47:02.759Z,52.61
2024-04-19T00:48:02.812Z,52.88
2024-04-19T00:49:02.784Z,53.20
2024-04-19T00:50:02.834Z,53.28
2024-04-19T00:51:02.847Z,53.33
2024-04-19T00:52:02.940Z,53.25
2024-04-19T00:53:02.916Z,53.06
2024-04-19T00:54:02.924Z,52.77
2024-04-19T00:55:02.979Z,52.86
2024-04-19T00:56:03.041Z,52.97
2024-04-19T00:57:03.170Z,52.71
2024-04-19T00:58:03.231Z,52.85
2024-04-19T00:59:03.306Z,52.68
2024-04-19T01:00:03.373Z,52.84
2024-04-19T01:01:03.657Z,52.92
2024-04-19T01:02:03.613Z,52.94
2024-04-19T01:03:03.698Z,53.20
2024-04-19T01:04:03.829Z,53.04
2024-04-19T01:05:03.854Z,53.13
2024-04-19T01:06:03.984Z,53.99
2024-04-19T01:07:04.054Z,53.73
2024-04-19T01:08:04.102Z,53.65
2024-04-19T01:09:04.206Z,53.90
2024-04-19T01:10:04.261Z,53.88
2024-04-19T01:11:04.355Z,53.90
2024-04-19T01:12:04.347Z,54.18
2024-04-19T01:13:04.383Z,54.31
2024-04-19T01:14:04.586Z,54.38
2024-04-19T01:15:04.554Z,54.40
2024-04-19T01:16:04.608Z,54.05
2024-04-19T01:17:04.766Z,53.95
2024-04-19T01:18:04.923Z,54.03
2024-04-19T01:19:04.983Z,53.85
2024-04-19T01:20:04.991Z,53.65
2024-04-19T01:21:05.102Z,53.45
2024-04-19T01:22:05.228Z,52.90
2024-04-19T01:23:05.311Z,52.66
2024-04-19T01:24:05.347Z,53.00
2024-04-19T01:25:05.385Z,53.18
2024-04-19T01:26:05.457Z,52.99
2024-04-19T01:27:05.503Z,52.75
2024-04-19T01:28:05.553Z,52.96
2024-04-19T01:29:05.626Z,53.33
2024-04-19T01:30:05.676Z,53.48
2024-04-19T01:31:05.774Z,53.61
2024-04-19T01:32:05.850Z,53.95
2024-04-19T01:33:06.037Z,54.01
2024-04-19T01:34:06.096Z,54.16
2024-04-19T01:35:06.171Z,53.77
2024-04-19T01:36:06.283Z,53.80
2024-04-19T01:37:06.359Z,53.90
2024-04-19T01:38:06.473Z,54.11
2024-04-19T01:39:06.565Z,53.90
2024-04-19T01:40:06.641Z,53.95
2024-04-19T01:41:06.682Z,53.92
2024-04-19T01:42:06.749Z,53.97
2024-04-19T01:43:06.768Z,54.56
2024-04-19T01:44:06.863Z,54.61
2024-04-19T01:45:06.874Z,54.71
2024-04-19T01:46:06.922Z,54.95
2024-04-19T01:47:07.024Z,54.81
2024-04-19T01:48:07.078Z,54.75
2024-04-19T01:49:07.066Z,54.86
2024-04-19T01:50:07.161Z,54.67
2024-04-19T01:51:07.223Z,55.09
2024-04-19T01:52:07.282Z,55.46
2024-04-19T01:53:07.336Z,55.06
2024-04-19T01:54:07.399Z,55.21
2024-04-19T01:55:07.455Z,55.18
2024-04-19T01:56:07.489Z,55.15
2024-04-19T01:57:07.831Z,55.03
2024-04-19T01:58:07.673Z,55.27
2024-04-19T01:59:07.742Z,55.18
2024-04-19T02:00:07.788Z,55.00
2024-04-19T02:01:08.060Z,54.79
2024-04-19T02:02:08.023Z,54.76
2024-04-19T02:03:08.020Z,54.72
2024-04-19T02:04:08.150Z,54.67
2024-04-19T02:05:08.281Z,55.05
2024-04-19T02:06:08.294Z,54.99
2024-04-19T02:07:08.381Z,55.26
2024-04-19T02:08:08.453Z,55.39
2024-04-19T02:09:08.520Z,55.28
2024-04-19T02:10:08.644Z,55.14
2024-04-19T02:11:08.747Z,54.89
2024-04-19T02:12:09.265Z,55.02
2024-04-19T02:13:08.897Z,55.11
2024-04-19T02:14:08.973Z,55.11
2024-04-19T02:15:09.082Z,55.17
2024-04-19T02:16:09.196Z,55.22
2024-04-19T02:17:09.299Z,55.13
2024-04-19T02:18:09.352Z,54.83
2024-04-19T02:19:09.467Z,55.04
2024-04-19T02:20:09.558Z,55.14
2024-04-19T02:21:09.684Z,54.96
2024-04-19T02:22:09.790Z,55.00
2024-04-19T02:23:09.881Z,55.14
2024-04-19T02:24:10.028Z,55.13
2024-04-19T02:25:10.060Z,55.02
2024-04-19T02:26:10.119Z,54.84
2024-04-19T02:27:10.220Z,55.13
2024-04-19T02:28:10.300Z,54.97
2024-04-19T02:29:10.338Z,54.77
2024-04-19T02:30:10.411Z,54.66
2024-04-19T02:31:10.477Z,54.55
2024-04-19T02:32:10.524Z,54.86
2024-04-19T02:33:10.606Z,54.94
2024-04-19T02:34:10.648Z,54.99
2024-04-19T02:35:10.680Z,54.69
2024-04-19T02:36:10.753Z,54.51
2024-04-19T02:37:10.865Z,54.22
2024-04-19T02:38:10.972Z,53.86
2024-04-19T02:39:11.090Z,53.67
2024-04-19T02:40:11.159Z,53.53
2024-04-19T02:41:11.303Z,53.93
2024-04-19T02:42:11.432Z,54.18
2024-04-19T02:43:11.418Z,54.35
2024-04-19T02:44:11.497Z,54.43
2024-04-19T02:45:11.795Z,54.60
2024-04-19T02:46:11.809Z,54.96
2024-04-19T02:47:11.782Z,55.05
2024-04-19T02:48:11.873Z,55.20
2024-04-19T02:49:11.914Z,55.48
2024-04-19T02:50:11.939Z,55.34
2024-04-19T02:51:12.080Z,55.51
2024-04-19T02:52:12.130Z,55.26
2024-04-19T02:53:12.177Z,55.28
2024-04-19T02:54:12.284Z,55.22
2024-04-19T02:55:12.355Z,55.45
2024-04-19T02:56:12.474Z,55.80
2024-04-19T02:57:12.576Z,55.95
2024-04-19T02:58:12.588Z,55.81
2024-04-19T02:59:12.650Z,55.92
2024-04-19T03:00:12.746Z,55.88
2024-04-19T03:01:12.850Z,55.66
2024-04-19T03:02:12.823Z,55.65
2024-04-19T03:03:13.072Z,55.26
2024-04-19T03:04:13.060Z,55.16
2024-04-19T03:05:13.098Z,55.36
2024-04-19T03:06:13.233Z,55.15
2024-04-19T03:07:13.302Z,55.05
2024-04-19T03:08:13.343Z,55.15
2024-04-19T03:09:13.541Z,55.40
2024-04-19T03:10:13.502Z,55.46
2024-04-19T03:11:13.624Z,55.94
2024-04-19T03:12:13.717Z,55.88
2024-04-19T03:13:13.712Z,55.78
2024-04-19T03:14:13.837Z,55.77
2024-04-19T03:15:13.938Z,55.70
2024-04-19T03:16:13.950Z,55.91
2024-04-19T03:17:14.076Z,55.65
2024-04-19T03:18:14.100Z,55.53
2024-04-19T03:19:14.119Z,55.63
2024-04-19T03:20:14.165Z,55.54
2024-04-19T03:21:14.265Z,55.60
2024-04-19T03:22:14.359Z,55.77
2024-04-19T03:23:14.331Z,55.76
2024-04-19T03:24:14.421Z,55.83
2024-04-19T03:25:14.459Z,55.99
2024-04-19T03:26:14.564Z,56.34
2024-04-19T03:27:14.653Z,56.17
2024-04-19T03:28:14.743Z,56.33
2024-04-19T03:29:14.811Z,56.54
2024-04-19T03:30:14.914Z,56.59
2024-04-19T03:31:14.962Z,56.57
2024-04-19T03:32:15.060Z,56.55
2024-04-19T03:33:15.196Z,56.48
2024-04-19T03:34:15.185Z,56.50
2024-04-19T03:35:15.190Z,56.21
2024-04-19T03:36:15.299Z,56.08
2024-04-19T03:37:15.371Z,55.93
2024-04-19T03:38:15.423Z,55.88
2024-04-19T03:39:15.494Z,55.96
2024-04-19T03:40:15.534Z,56.08
2024-04-19T03:41:15.638Z,56.08
2024-04-19T03:42:15.784Z,56.04
2024-04-19T03:43:15.889Z,55.98
2024-04-19T03:44:15.926Z,56.32
2024-04-19T03:45:16.053Z,56.27
2024-04-19T03:46:16.135Z,56.35
2024-04-19T03:47:16.309Z,56.37
2024-04-19T03:48:18.367Z,56.15
2024-04-19T03:49:16.304Z,56.31
2024-04-19T03:50:16.359Z,56.45
2024-04-19T03:51:16.457Z,56.16
2024-04-19T03:52:16.472Z,56.25
2024-04-19T03:53:16.556Z,56.27
2024-04-19T03:54:16.699Z,56.04
2024-04-19T03:55:16.613Z,55.66
2024-04-19T03:56:16.664Z,55.50
2024-04-19T03:57:16.763Z,55.47
2024-04-19T03:58:16.799Z,55.73
2024-04-19T03:59:16.829Z,55.56
2024-04-19T04:00:16.953Z,55.55
2024-04-19T04:01:17.030Z,55.54
2024-04-19T04:02:17.003Z,55.57
2024-04-19T04:03:17.137Z,55.65
2024-04-19T04:04:17.077Z,55.88
2024-04-19T04:05:17.126Z,56.44
2024-04-19T04:06:17.232Z,56.45
2024-04-19T04:07:17.270Z,56.38
2024-04-19T04:08:17.269Z,56.26
2024-04-19T04:09:17.346Z,56.19
2024-04-19T04:10:17.399Z,56.63
2024-04-19T04:11:17.440Z,56.66
2024-04-19T04:12:17.506Z,56.76
2024-04-19T04:13:17.545Z,57.16
2024-04-19T04:14:17.595Z,57.14
2024-04-19T04:15:17.652Z,56.94
2024-04-19T04:16:17.675Z,56.70
2024-04-19T04:17:17.757Z,56.48
2024-04-19T04:18:17.936Z,56.15
2024-04-19T04:19:20.236Z,56.26
2024-04-19T04:20:17.852Z,56.46
2024-04-19T04:21:17.969Z,56.72
2024-04-19T04:22:17.981Z,56.82
2024-04-19T04:23:18.064Z,56.65
2024-04-19T04:24:18.058Z,56.75
2024-04-19T04:25:18.130Z,56.80
2024-04-19T04:26:18.238Z,56.91
2024-04-19T04:27:18.243Z,56.92
2024-04-19T04:28:18.212Z,57.25
2024-04-19T04:29:18.253Z,57.15
2024-04-19T04:30:18.357Z,56.90
2024-04-19T04:31:18.329Z,57.01
2024-04-19T04:32:18.418Z,56.59
2024-04-19T04:33:18.485Z,56.68
2024-04-19T04:34:18.512Z,56.54
2024-04-19T04:35:18.518Z,56.62
2024-04-19T04:36:18.602Z,56.75
2024-04-19T04:37:18.604Z,56.56
2024-04-19T04:38:18.636Z,56.25
2024-04-19T04:39:18.766Z,56.19
2024-04-19T04:40:18.710Z,56.22
2024-04-19T04:41:18.762Z,56.50
2024-04-19T04:42:18.905Z,56.52
2024-04-19T04:43:18.879Z,56.39
2024-04-19T04:44:18.884Z,56.28
2024-04-19T04:45:18.978Z,56.19
2024-04-19T04:46:18.957Z,56.15
2024-04-19T04:47:19.073Z,56.26
2024-04-19T04:48:19.176Z,56.29
2024-04-19T04:49:19.112Z,56.47
2024-04-19T04:50:19.136Z,55.81
2024-04-19T04:51:19.228Z,55.14
2024-04-19T04:52:19.239Z,55.00
2024-04-19T04:53:19.275Z,54.94
2024-04-19T04:54:19.346Z,55.12
2024-04-19T04:55:19.366Z,55.72
2024-04-19T04:56:19.415Z,55.77
2024-04-19T04:57:19.510Z,55.76
2024-04-19T04:58:19.500Z,55.71
2024-04-19T04:59:19.562Z,55.54
2024-04-19T05:00:19.579Z,55.21
2024-04-19T05:02:47.253Z,56.91
2024-04-19T05:03:24.897Z,55.20
2024-04-19T05:04:24.932Z,54.71
2024-04-19T05:05:24.954Z,54.64
2024-04-19T05:06:25.117Z,54.54
2024-04-19T05:07:25.098Z,54.71
2024-04-19T05:08:25.125Z,54.83
2024-04-19T05:09:25.245Z,54.67
2024-04-19T05:10:25.222Z,54.72
2024-04-19T05:11:25.313Z,54.53
2024-04-19T05:12:32.837Z,54.51
2024-04-19T05:13:32.814Z,54.37
2024-04-19T05:14:32.807Z,54.28
2024-04-19T05:15:32.845Z,54.20
2024-04-19T05:16:32.838Z,54.42
2024-04-19T05:17:32.863Z,54.48
2024-04-19T05:18:32.955Z,54.58
2024-04-19T05:19:32.808Z,54.53
2024-04-19T05:20:32.824Z,54.56
2024-04-19T05:21:32.896Z,54.32
2024-04-19T05:22:32.827Z,54.03
2024-04-19T05:23:32.846Z,54.18
2024-04-19T05:24:32.807Z,54.55
2024-04-19T05:25:32.814Z,54.64
2024-04-19T05:26:33.317Z,54.45
2024-04-19T05:27:32.796Z,54.49
2024-04-19T05:28:32.771Z,53.93
2024-04-19T05:29:32.846Z,53.63
2024-04-19T05:30:32.858Z,53.56
2024-04-19T05:31:32.742Z,53.54
2024-04-19T05:32:32.829Z,53.51
2024-04-19T05:33:32.804Z,53.46
2024-04-19T05:34:35.559Z,53.53
2024-04-19T05:35:32.718Z,53.77
2024-04-19T05:36:32.810Z,54.13
2024-04-19T05:37:32.660Z,54.16
2024-04-19T05:38:32.949Z,54.08
2024-04-19T05:39:32.703Z,53.90
2024-04-19T05:40:32.653Z,53.71
2024-04-19T05:41:32.650Z,53.86
2024-04-19T05:42:34.860Z,53.87
2024-04-19T05:43:32.923Z,54.08
2024-04-19T05:44:32.902Z,54.36
2024-04-19T05:45:32.829Z,54.04
2024-04-19T05:48:02.123Z,56.07
2024-04-19T05:48:38.987Z,54.11
2024-04-19T05:49:39.012Z,53.50
2024-04-19T05:50:38.998Z,53.29
2024-04-19T05:51:39.103Z,53.21
2024-04-19T05:52:39.048Z,53.34
2024-04-19T05:53:39.467Z,53.49
2024-04-19T05:54:39.232Z,53.58
2024-04-19T05:55:39.224Z,52.99
2024-04-19T05:56:39.276Z,53.11
2024-04-19T05:57:39.374Z,52.85
2024-04-19T05:58:39.498Z,52.86
2024-04-19T05:59:39.454Z,52.90
2024-04-19T06:00:39.732Z,53.05
2024-04-19T06:01:40.833Z,53.03
2024-04-19T06:02:39.539Z,53.25
2024-04-19T06:03:39.614Z,53.41
2024-04-19T06:04:39.439Z,53.33
2024-04-19T06:05:39.451Z,53.43
2024-04-19T06:06:39.466Z,53.34
2024-04-19T06:07:39.410Z,52.91
2024-04-19T06:08:39.473Z,52.71
2024-04-19T06:09:39.431Z,52.56
2024-04-19T06:10:39.366Z,52.35
2024-04-19T06:11:39.367Z,52.64
2024-04-19T06:12:39.349Z,52.85
2024-04-19T06:13:39.452Z,52.80
2024-04-19T06:14:39.350Z,52.52
2024-04-19T06:15:39.466Z,52.38
2024-04-19T06:16:39.351Z,52.39
2024-04-19T06:17:39.391Z,52.43
2024-04-19T06:18:39.617Z,52.27
2024-04-19T06:19:39.275Z,52.05
2024-04-19T06:20:39.287Z,51.92
2024-04-19T06:21:39.345Z,52.27
2024-04-19T06:22:39.297Z,52.60
2024-04-19T06:23:39.473Z,52.41
2024-04-19T06:24:39.377Z,52.17
2024-04-19T06:25:39.330Z,52.04
2024-04-19T06:26:39.328Z,52.12
2024-04-19T06:27:39.484Z,52.29
2024-04-19T06:28:39.442Z,52.24
2024-04-19T06:29:39.345Z,52.58
2024-04-19T06:30:39.456Z,52.75
2024-04-19T06:31:39.526Z,52.61
2024-04-19T06:32:39.607Z,52.65
2024-04-19T06:33:40.032Z,52.74
2024-04-19T06:34:39.552Z,52.44
2024-04-19T06:35:39.665Z,51.77
2024-04-19T06:36:39.650Z,51.53
2024-04-19T06:37:39.570Z,51.22
2024-04-19T06:38:43.056Z,50.92
2024-04-19T06:39:47.133Z,50.89
2024-04-19T06:40:40.563Z,50.89
2024-04-19T06:41:39.498Z,50.83
2024-04-19T06:42:39.519Z,50.39
2024-04-19T06:43:39.463Z,49.99
2024-04-19T06:44:39.390Z,50.12
2024-04-19T06:45:39.404Z,50.26
2024-04-19T06:46:39.330Z,50.30
2024-04-19T06:47:39.463Z,50.63
2024-04-19T06:48:39.436Z,50.81
2024-04-19T06:49:39.557Z,51.25
2024-04-19T06:50:39.413Z,51.13
2024-04-19T06:51:41.936Z,50.77
2024-04-19T06:52:39.417Z,51.08
2024-04-19T06:53:39.449Z,50.58
2024-04-19T06:54:39.361Z,50.95
2024-04-19T06:55:39.293Z,50.65
2024-04-19T06:56:39.280Z,49.70
2024-04-19T06:57:39.307Z,49.84
2024-04-19T06:58:39.208Z,49.48
2024-04-19T06:59:39.246Z,48.89
2024-04-19T07:00:47.901Z,49.00
2024-04-19T07:01:40.208Z,49.28
2024-04-19T07:02:39.254Z,49.42
2024-04-19T07:03:39.743Z,49.15
2024-04-19T07:04:39.150Z,48.76
2024-04-19T07:05:40.086Z,49.08
2024-04-19T07:06:42.070Z,49.27
2024-04-19T07:07:39.647Z,49.24
2024-04-19T07:08:39.563Z,48.29
2024-04-19T07:09:39.137Z,48.08
2024-04-19T07:10:38.892Z,47.80
2024-04-19T07:11:38.896Z,47.86
2024-04-19T07:12:38.995Z,47.95
2024-04-19T07:13:38.798Z,47.37
2024-04-19T07:14:39.007Z,47.41
2024-04-19T07:15:38.801Z,47.46
2024-04-19T07:16:39.206Z,47.19
2024-04-19T07:17:39.005Z,47.16
2024-04-19T07:18:38.783Z,47.36
2024-04-19T07:19:38.846Z,47.50
2024-04-19T07:20:38.881Z,48.09
2024-04-19T07:21:38.845Z,48.32
2024-04-19T07:22:38.808Z,48.31
2024-04-19T07:23:38.818Z,47.78
2024-04-19T07:24:39.002Z,47.82
2024-04-19T07:25:38.823Z,47.81
2024-04-19T07:26:38.899Z,48.09
2024-04-19T07:27:45.315Z,47.89
2024-04-19T07:28:39.967Z,47.77
2024-04-19T07:29:40.459Z,47.45
2024-04-19T07:30:39.136Z,47.32
2024-04-19T07:31:38.797Z,46.94
2024-04-19T07:32:38.865Z,47.26
2024-04-19T07:33:44.654Z,47.15
2024-04-19T07:34:45.913Z,47.04
2024-04-19T07:35:39.672Z,47.00
2024-04-19T07:36:43.976Z,47.15
2024-04-19T07:37:45.038Z,46.75
2024-04-19T07:38:39.544Z,45.74
2024-04-19T07:39:39.011Z,46.34
2024-04-19T07:40:38.544Z,45.21
2024-04-19T07:41:38.446Z,44.38
2024-04-19T07:42:38.460Z,44.12
2024-04-19T07:43:45.806Z,43.88
2024-04-19T07:44:39.506Z,44.10
2024-04-19T07:45:38.468Z,44.32
2024-04-19T07:46:39.256Z,43.88
2024-04-19T07:47:38.312Z,43.44
2024-04-19T07:48:38.349Z,43.44
2024-04-19T07:49:38.493Z,43.45
2024-04-19T07:50:38.151Z,43.97
2024-04-19T07:51:38.131Z,44.76
2024-04-19T07:52:39.031Z,44.87
2024-04-19T07:53:38.000Z,44.34
2024-04-19T07:54:38.049Z,43.85
2024-04-19T07:55:37.922Z,42.78
2024-04-19T07:56:37.895Z,42.78
2024-04-19T07:57:37.982Z,42.26
2024-04-19T07:58:38.331Z,41.45
2024-04-19T07:59:38.013Z,42.05
2024-04-19T08:00:37.731Z,41.90
2024-04-19T08:01:37.621Z,41.40
2024-04-19T08:02:37.585Z,41.00
2024-04-19T08:03:37.722Z,41.10
2024-04-19T08:04:38.041Z,40.18
2024-04-19T08:05:37.623Z,38.44
2024-04-19T08:06:37.702Z,38.95
2024-04-19T08:07:40.273Z,39.47
2024-04-19T08:08:37.538Z,39.35
2024-04-19T08:09:38.227Z,39.27
2024-04-19T08:10:37.418Z,39.68
2024-04-19T08:11:37.428Z,39.48
2024-04-19T08:12:37.378Z,39.47
2024-04-19T08:13:37.261Z,38.79
2024-04-19T08:14:37.228Z,39.02
2024-04-19T08:15:38.122Z,38.58
2024-04-19T08:16:37.189Z,39.19
2024-04-19T08:17:37.102Z,38.80
2024-04-19T08:18:37.072Z,38.08
2024-04-19T08:19:37.138Z,37.72
2024-04-19T08:20:36.977Z,37.39
2024-04-19T08:21:36.944Z,37.67
2024-04-19T08:22:36.882Z,38.79
2024-04-19T08:23:36.849Z,38.89
2024-04-19T08:24:36.806Z,38.43
2024-04-19T08:25:37.002Z,37.92
2024-04-19T08:26:36.737Z,38.72
2024-04-19T08:27:36.723Z,38.79
2024-04-19T08:28:36.609Z,38.94
2024-04-19T08:29:36.736Z,38.60
2024-04-19T08:30:36.525Z,38.70
2024-04-19T08:31:36.435Z,38.53
2024-04-19T08:32:36.475Z,38.70
2024-04-19T08:33:36.306Z,38.34
2024-04-19T08:34:36.252Z,38.04
2024-04-19T08:35:36.518Z,38.23
2024-04-19T08:36:36.153Z,37.41
2024-04-19T08:37:36.382Z,36.77
2024-04-19T08:38:35.995Z,37.02
2024-04-19T08:39:35.984Z,37.47
2024-04-19T08:40:37.811Z,37.08
2024-04-19T08:41:35.839Z,36.97
2024-04-19T08:42:35.795Z,37.23
2024-04-19T08:43:35.705Z,38.12
2024-04-19T08:44:35.682Z,37.19
2024-04-19T08:45:36.064Z,37.14
2024-04-19T08:46:35.552Z,36.76
2024-04-19T08:47:35.568Z,37.48
2024-04-19T08:48:35.461Z,38.12
2024-04-19T08:49:35.385Z,38.08
2024-04-19T08:50:35.511Z,37.91
2024-04-19T08:51:50.378Z,36.90
2024-04-19T08:52:58.380Z,37.24
2024-04-19T08:53:36.166Z,37.85
2024-04-19T08:54:35.043Z,37.07
2024-04-19T08:55:35.092Z,37.26
2024-04-19T08:56:34.884Z,37.06
2024-04-19T08:57:34.905Z,36.74
2024-04-19T08:58:34.788Z,37.04
2024-04-19T08:59:34.686Z,36.74
2024-04-19T09:00:34.697Z,37.19
2024-04-19T09:01:34.568Z,37.39
2024-04-19T09:02:34.513Z,37.16
2024-04-19T09:03:34.495Z,37.16
2024-04-19T09:04:34.474Z,36.89
2024-04-19T09:05:34.328Z,37.13
2024-04-19T09:06:34.281Z,36.79
2024-04-19T09:07:34.202Z,36.59
2024-04-19T09:08:34.110Z,36.80
2024-04-19T09:09:34.052Z,36.66
2024-04-19T09:10:33.959Z,36.46
2024-04-19T09:11:33.947Z,35.43
2024-04-19T09:12:34.188Z,35.51
2024-04-19T09:13:33.729Z,35.68
2024-04-19T09:14:33.678Z,35.67
2024-04-19T09:15:33.647Z,35.74
2024-04-19T09:16:33.552Z,35.67
2024-04-19T09:17:33.692Z,35.94
2024-04-19T09:18:33.423Z,35.24
2024-04-19T09:19:33.303Z,35.81
2024-04-19T09:20:33.271Z,36.51
2024-04-19T09:21:33.524Z,36.17
2024-04-19T09:22:33.127Z,36.97
2024-04-19T09:23:33.032Z,37.09
2024-04-19T09:24:33.058Z,38.10
2024-04-19T09:25:32.890Z,37.35
2024-04-19T09:26:32.864Z,36.89
2024-04-19T09:27:32.816Z,37.18
2024-04-19T09:28:32.775Z,36.68
2024-04-19T09:29:32.827Z,37.34
2024-04-19T09:30:32.681Z,37.08
2024-04-19T09:31:33.071Z,37.08
2024-04-19T09:33:33.749Z,37.26
2024-04-19T09:34:32.498Z,37.74
2024-04-19T09:35:32.482Z,37.20
2024-04-19T09:36:32.401Z,36.94
2024-04-19T09:37:32.313Z,36.29
2024-04-19T09:38:32.267Z,36.89
2024-04-19T09:39:32.257Z,36.06
2024-04-19T09:40:32.124Z,35.77
2024-04-19T09:41:32.606Z,36.10
2024-04-19T09:42:32.202Z,35.76
2024-04-19T09:43:32.095Z,35.61
2024-04-19T09:44:33.128Z,34.87
2024-04-19T09:45:32.102Z,35.41
2024-04-19T09:46:32.021Z,35.01
2024-04-19T09:47:31.954Z,34.40
2024-04-19T09:48:31.965Z,34.54
2024-04-19T09:49:31.780Z,34.26
2024-04-19T09:50:31.707Z,34.00
2024-04-19T09:51:32.135Z,33.55
2024-04-19T09:52:31.607Z,33.12
2024-04-19T09:53:31.557Z,33.57
2024-04-19T09:54:31.526Z,33.99
2024-04-19T09:55:31.485Z,33.71
2024-04-19T09:56:31.535Z,33.89
2024-04-19T09:57:31.420Z,33.38
2024-04-19T09:58:31.332Z,33.30
2024-04-19T09:59:31.315Z,34.10
2024-04-19T10:00:31.599Z,34.69
2024-04-19T10:01:31.642Z,33.86
2024-04-19T10:02:36.432Z,34.20
2024-04-19T10:03:32.306Z,33.48
2024-04-19T10:04:31.107Z,33.07
2024-04-19T10:05:30.924Z,32.87
2024-04-19T10:06:32.017Z,30.86
2024-04-19T10:07:30.743Z,29.89
2024-04-19T10:08:30.676Z,30.17
2024-04-19T10:09:30.626Z,32.07
2024-04-19T10:10:30.498Z,33.00
2024-04-19T10:11:30.557Z,32.52
2024-04-19T10:12:30.408Z,32.08
2024-04-19T10:13:30.283Z,32.54
2024-04-19T10:14:30.224Z,32.17
2024-04-19T10:15:30.115Z,32.06
2024-04-19T10:16:30.327Z,32.15
2024-04-19T10:17:30.059Z,31.86
2024-04-19T10:18:29.902Z,30.11
2024-04-19T10:19:34.387Z,29.57
2024-04-19T10:20:30.658Z,29.97
2024-04-19T10:21:30.138Z,30.78
2024-04-19T10:22:29.452Z,30.56
2024-04-19T10:23:29.458Z,29.00
2024-04-19T10:24:29.341Z,29.32
2024-04-19T10:25:29.157Z,28.96
2024-04-19T10:26:29.061Z,28.56
2024-04-19T10:27:29.047Z,28.43
2024-04-19T10:28:28.842Z,27.96
2024-04-19T10:29:28.743Z,28.21
2024-04-19T10:30:34.738Z,27.96
2024-04-19T10:31:29.553Z,27.62
2024-04-19T10:32:28.506Z,27.60
2024-04-19T10:33:28.310Z,27.11
2024-04-19T10:34:28.205Z,27.28
2024-04-19T10:35:28.111Z,26.79
2024-04-19T10:36:28.142Z,27.39
2024-04-19T10:37:27.849Z,27.52
2024-04-19T10:38:27.729Z,27.16
2024-04-19T10:39:27.715Z,27.33
2024-04-19T10:40:27.514Z,26.44
2024-04-19T10:41:27.397Z,26.79
2024-04-19T10:42:27.546Z,26.00
2024-04-19T10:43:27.138Z,26.52
2024-04-19T10:44:27.063Z,27.07
2024-04-19T10:45:26.989Z,25.76
2024-04-19T10:46:26.884Z,24.82
2024-04-19T10:47:27.114Z,24.82
2024-04-19T10:48:28.363Z,25.25
2024-04-19T10:49:26.626Z,25.68
2024-04-19T10:50:26.468Z,25.71
2024-04-19T10:51:26.374Z,24.98
2024-04-19T10:52:26.560Z,24.53
2024-04-19T10:53:26.195Z,23.48
2024-04-19T10:54:26.138Z,24.80
2024-04-19T10:55:26.010Z,25.06
2024-04-19T10:56:25.987Z,24.75
2024-04-19T10:57:25.949Z,23.69
2024-04-19T10:58:25.775Z,23.10
2024-04-19T10:59:25.752Z,22.93
2024-04-19T11:00:25.696Z,22.95
2024-04-19T11:01:25.760Z,23.29
2024-04-19T11:02:26.144Z,23.17
2024-04-19T11:03:25.655Z,23.26
2024-04-19T11:04:25.731Z,23.39
2024-04-19T11:05:25.572Z,23.61
2024-04-19T11:06:25.557Z,24.07
2024-04-19T11:07:25.547Z,23.65
2024-04-19T11:08:25.399Z,23.62
2024-04-19T11:09:25.456Z,23.21
2024-04-19T11:10:25.388Z,22.83
2024-04-19T11:11:25.475Z,23.69
2024-04-19T11:12:25.307Z,24.65
2024-04-19T11:13:25.256Z,25.10
2024-04-19T11:14:25.220Z,25.32
2024-04-19T11:15:25.179Z,23.68
2024-04-19T11:16:25.222Z,23.29
2024-04-19T11:17:25.180Z,23.37
2024-04-19T11:18:25.190Z,23.33
2024-04-19T11:19:25.258Z,23.47
2024-04-19T11:20:24.957Z,23.55
2024-04-19T11:21:24.985Z,23.58
2024-04-19T11:22:25.061Z,24.97
2024-04-19T11:23:24.827Z,24.83
2024-04-19T11:24:24.843Z,24.87
2024-04-19T11:25:24.714Z,24.90
2024-04-19T11:26:24.619Z,24.58
2024-04-19T11:27:26.583Z,23.63
2024-04-19T11:28:24.500Z,23.40
2024-04-19T11:29:24.474Z,22.69
2024-04-19T11:30:24.431Z,22.69
2024-04-19T11:31:24.384Z,23.55
2024-04-19T11:32:24.682Z,23.27
2024-04-19T11:33:24.238Z,24.29
2024-04-19T11:34:24.187Z,23.44
2024-04-19T11:35:24.124Z,23.83
2024-04-19T11:36:24.085Z,24.16
2024-04-19T11:37:24.044Z,23.72
2024-04-19T11:38:23.898Z,23.17
2024-04-19T11:39:23.776Z,22.98
2024-04-19T11:40:23.669Z,22.70
2024-04-19T11:41:23.591Z,21.81
2024-04-19T11:42:23.647Z,21.78
2024-04-19T11:43:23.525Z,22.04
2024-04-19T11:44:23.447Z,21.75
2024-04-19T11:45:23.415Z,21.92
2024-04-19T11:46:23.364Z,22.20
2024-04-19T11:47:23.492Z,23.11
2024-04-19T11:48:23.449Z,23.54
2024-04-19T11:49:23.289Z,22.95
2024-04-19T11:50:23.168Z,22.94
2024-04-19T11:51:23.165Z,22.57
2024-04-19T11:52:23.056Z,22.83
2024-04-19T11:53:23.028Z,23.39
2024-04-19T11:54:23.026Z,23.68
2024-04-19T11:55:22.909Z,24.63
2024-04-19T11:56:22.802Z,24.39
2024-04-19T11:57:22.781Z,24.63
2024-04-19T11:58:22.661Z,23.64
2024-04-19T11:59:22.611Z,22.76
2024-04-19T12:00:22.574Z,21.67
2024-04-19T12:01:22.568Z,22.43
2024-04-19T12:02:22.415Z,23.33
2024-04-19T12:03:22.420Z,22.99
2024-04-19T12:04:22.517Z,21.23
2024-04-19T12:05:22.392Z,20.86
2024-04-19T12:06:22.277Z,21.32
2024-04-19T12:07:22.158Z,22.77
2024-04-19T12:08:22.107Z,22.34
2024-04-19T12:09:22.099Z,21.33
2024-04-19T12:10:23.912Z,21.90
2024-04-19T12:11:21.976Z,22.70
2024-04-19T12:13:08.913Z,22.48
2024-04-19T12:15:12.994Z,23.72
2024-04-19T12:16:04.574Z,24.31
2024-04-19T12:17:25.953Z,22.73
2024-04-19T12:18:22.364Z,22.67
2024-04-19T12:19:21.272Z,23.05
2024-04-19T12:20:29.822Z,23.10
2024-04-19T12:21:22.562Z,23.81
2024-04-19T12:22:22.202Z,23.60
2024-04-19T12:23:22.132Z,23.96
2024-04-19T12:24:20.864Z,23.76
2024-04-19T12:25:20.951Z,23.52
2024-04-19T12:26:21.943Z,23.19
2024-04-19T12:27:20.452Z,23.59
2024-04-19T12:28:20.266Z,23.50
2024-04-19T12:29:20.152Z,22.61
2024-04-19T12:30:19.954Z,23.43
2024-04-19T12:31:19.814Z,23.92
2024-04-19T12:32:19.717Z,23.89
2024-04-19T12:33:19.668Z,23.65
2024-04-19T12:34:19.524Z,23.69
2024-04-19T12:35:19.347Z,23.43
2024-04-19T12:36:19.295Z,22.63
2024-04-19T12:37:19.145Z,23.26
2024-04-19T12:38:19.060Z,23.60
2024-04-19T12:39:18.963Z,23.50
2024-04-19T12:40:18.776Z,22.93
2024-04-19T12:41:18.794Z,23.14
2024-04-19T12:42:18.725Z,22.54
2024-04-19T12:43:18.648Z,22.39
2024-04-19T12:44:18.518Z,22.83
2024-04-19T12:45:18.449Z,22.03
2024-04-19T12:46:18.377Z,22.61
2024-04-19T12:47:18.293Z,22.71
2024-04-19T12:48:18.455Z,22.99
2024-04-19T12:49:18.132Z,23.06
2024-04-19T12:50:18.026Z,23.70
2024-04-19T12:51:17.943Z,23.55
2024-04-19T12:52:17.896Z,23.63
2024-04-19T12:53:17.798Z,23.26
2024-04-19T12:54:17.691Z,23.07
2024-04-19T12:55:17.564Z,22.97
2024-04-19T12:56:17.510Z,22.40
2024-04-19T12:57:17.360Z,22.94
2024-04-19T12:58:17.269Z,23.11